Rechercher aéroport 
image banner adimage banner adimage banner ad
image banner ad

PS34 - North Penn Usarc

Situé à Worcester, United States

ICAO - PS34, IATA -

Données fournies par Airmate  

Information générale

Coordonnées: N40°11'30" W75°20'29"
Élévation : 450 feet MSL.
Variation magnétique : -11° East
Voir autres Aéroports à Pennsylvania

Données opérationnelles

Special qualification required
Heure actuelle UTC:
Heure actuelle locale:
Météo à : KLOM - Wings Field ( 9 km )
METAR: KLOM 131935Z AUTO 18003KT 10SM OVC041 24/18 A2990 RMK AO2 T02410177
Voir NOTAMs / SUP AIP / TFR affectant cet aéroport [VIEW]
Fréquences de communication: [VIEW]

Pistes:

Coordonnées de l'aéroport

Adresse: Worcester United States

Vue satellite de PS34